createdAt,value
2022-09-01T00:03:32.795Z,20.41
2022-09-01T00:05:59.896Z,20.47
2022-09-01T00:08:26.967Z,20.43
2022-09-01T00:10:54.135Z,20.48
2022-09-01T00:13:21.195Z,20.51
2022-09-01T00:15:48.494Z,20.56
2022-09-01T00:18:16.054Z,20.64
2022-09-01T00:20:43.195Z,20.65
2022-09-01T00:23:10.314Z,20.67
2022-09-01T00:25:37.320Z,20.58
2022-09-01T00:28:05.235Z,20.42
2022-09-01T00:30:32.328Z,20.40
2022-09-01T00:32:59.534Z,20.38
2022-09-01T00:35:26.554Z,20.19
2022-09-01T00:37:53.674Z,20.32
2022-09-01T00:40:20.968Z,20.25
2022-09-01T00:42:49.168Z,20.17
2022-09-01T00:45:16.234Z,20.13
2022-09-01T00:47:43.415Z,20.17
2022-09-01T00:50:13.324Z,20.31
2022-09-01T00:52:45.344Z,20.38
2022-09-01T00:55:18.074Z,20.35
2022-09-01T00:57:45.856Z,20.39
2022-09-01T01:00:18.741Z,20.22
2022-09-01T01:02:45.937Z,20.19
2022-09-01T01:05:14.396Z,20.08
2022-09-01T01:07:46.031Z,20.18
2022-09-01T01:10:17.959Z,20.22
2022-09-01T01:12:45.455Z,20.18
2022-09-01T01:15:13.604Z,20.04
2022-09-01T01:17:40.942Z,20.06
2022-09-01T01:20:28.210Z,20.16
2022-09-01T01:23:13.862Z,20.14
2022-09-01T01:25:56.701Z,20.08
2022-09-01T01:28:34.102Z,19.80
2022-09-01T01:31:14.340Z,19.73
2022-09-01T01:33:44.975Z,19.74
2022-09-01T01:36:16.259Z,19.84
2022-09-01T01:38:47.795Z,19.91
2022-09-01T01:41:17.855Z,19.98
2022-09-01T01:43:44.952Z,19.88
2022-09-01T01:46:14.616Z,20.00
2022-09-01T01:48:43.314Z,20.09
2022-09-01T01:51:12.091Z,20.04
2022-09-01T01:53:39.185Z,19.90
2022-09-01T01:56:06.521Z,19.87
2022-09-01T01:58:35.114Z,19.95
2022-09-01T02:01:03.799Z,20.00
2022-09-01T02:03:38.687Z,20.03
2022-09-01T02:06:10.643Z,20.04
2022-09-01T02:08:39.474Z,20.09
2022-09-01T02:11:07.776Z,20.09
2022-09-01T02:13:35.487Z,20.00
2022-09-01T02:16:07.927Z,19.90
2022-09-01T02:18:39.030Z,19.89
2022-09-01T02:21:12.747Z,19.84
2022-09-01T02:23:42.315Z,19.77
2022-09-01T02:26:19.365Z,19.72
2022-09-01T02:28:54.659Z,19.73
2022-09-01T02:31:23.951Z,19.78
2022-09-01T02:33:51.255Z,19.78
2022-09-01T02:36:19.811Z,19.86
2022-09-01T02:38:53.630Z,19.81
2022-09-01T02:41:25.332Z,19.73
2022-09-01T02:43:52.438Z,19.80
2022-09-01T02:46:24.290Z,19.85
2022-09-01T02:48:51.995Z,19.91
2022-09-01T02:51:22.694Z,19.93
2022-09-01T02:53:52.281Z,19.92
2022-09-01T02:56:24.954Z,19.92
2022-09-01T02:58:53.435Z,19.89
2022-09-01T03:01:27.485Z,19.94
2022-09-01T03:03:57.414Z,19.94
2022-09-01T03:06:25.981Z,19.95
2022-09-01T03:08:55.993Z,19.92
2022-09-01T03:11:24.510Z,19.91
2022-09-01T03:13:53.133Z,19.92
2022-09-01T03:16:22.369Z,19.92
2022-09-01T03:18:50.789Z,19.93
2022-09-01T03:21:18.220Z,19.82
2022-09-01T03:23:46.733Z,19.85
2022-09-01T03:26:16.474Z,19.80
2022-09-01T03:28:43.543Z,19.71
2022-09-01T03:31:10.571Z,19.70
2022-09-01T03:33:38.084Z,19.69
2022-09-01T03:36:14.853Z,19.72
2022-09-01T03:38:44.266Z,19.76
2022-09-01T03:41:13.479Z,19.76
2022-09-01T03:43:45.999Z,19.80
2022-09-01T03:46:21.938Z,19.81
2022-09-01T03:48:51.895Z,19.80
2022-09-01T03:51:20.834Z,19.82
2022-09-01T03:53:48.496Z,19.82
2022-09-01T03:56:16.761Z,19.81
2022-09-01T03:58:47.587Z,19.83
2022-09-01T04:01:16.251Z,19.85
2022-09-01T04:03:49.131Z,19.91
2022-09-01T04:06:18.774Z,19.94
2022-09-01T04:08:47.318Z,19.93
2022-09-01T04:11:20.685Z,19.92
2022-09-01T04:13:47.694Z,20.01
2022-09-01T04:16:43.698Z,19.88
2022-09-01T04:19:25.805Z,19.81
2022-09-01T04:21:55.974Z,19.80
2022-09-01T04:24:28.281Z,19.86
2022-09-01T04:27:02.416Z,19.97
2022-09-01T04:29:30.873Z,20.11
2022-09-01T04:32:05.495Z,19.95
2022-09-01T04:34:40.049Z,19.84
2022-09-01T04:37:13.305Z,19.67
2022-09-01T04:39:53.729Z,19.72
2022-09-01T04:42:24.471Z,19.83
2022-09-01T04:44:53.796Z,19.95
2022-09-01T04:47:35.559Z,20.05
2022-09-01T04:50:14.485Z,20.12
2022-09-01T04:52:45.083Z,20.15
2022-09-01T04:55:18.955Z,20.18
2022-09-01T04:57:49.637Z,20.16
2022-09-01T05:00:24.641Z,20.22
2022-09-01T05:03:03.355Z,20.26
2022-09-01T05:05:45.122Z,20.32
2022-09-01T05:08:23.472Z,20.29
2022-09-01T05:10:55.919Z,20.44
2022-09-01T05:13:23.824Z,20.62
2022-09-01T05:16:02.107Z,20.86
2022-09-01T05:18:29.217Z,20.97
2022-09-01T05:20:57.705Z,21.04
2022-09-01T05:23:26.853Z,21.26
2022-09-01T05:25:56.507Z,21.47
2022-09-01T05:28:37.265Z,21.89
2022-09-01T05:31:04.460Z,22.28
2022-09-01T05:33:32.284Z,22.82
2022-09-01T05:36:03.425Z,22.86
2022-09-01T05:38:31.604Z,23.20
2022-09-01T05:41:04.204Z,23.69
2022-09-01T05:43:31.884Z,23.68
2022-09-01T05:46:06.965Z,23.83
2022-09-01T05:48:35.925Z,23.74
2022-09-01T05:51:17.658Z,23.96
2022-09-01T05:53:56.588Z,24.05
2022-09-01T05:56:25.184Z,24.07
2022-09-01T06:01:41.394Z,25.15
2022-09-01T06:04:10.155Z,25.55
2022-09-01T06:07:06.017Z,26.05
2022-09-01T06:09:38.453Z,26.42
2022-09-01T06:12:06.913Z,26.76
2022-09-01T06:14:35.292Z,26.97
2022-09-01T06:17:03.422Z,27.28
2022-09-01T06:19:34.767Z,27.28
2022-09-01T06:22:03.235Z,27.50
2022-09-01T06:24:30.144Z,27.51
2022-09-01T06:26:57.213Z,27.49
2022-09-01T06:29:24.153Z,27.60
2022-09-01T06:31:52.974Z,27.99
2022-09-01T06:34:20.879Z,28.18
2022-09-01T06:36:50.496Z,27.54
2022-09-01T06:39:20.655Z,26.98
2022-09-01T06:41:53.204Z,26.43
2022-09-01T06:44:23.396Z,26.20
2022-09-01T06:46:52.385Z,26.22
2022-09-01T06:49:21.721Z,25.99
2022-09-01T06:51:51.908Z,25.82
2022-09-01T06:54:21.155Z,25.81
2022-09-01T06:56:51.745Z,25.89
2022-09-01T06:59:20.452Z,26.05
2022-09-01T07:04:39.623Z,26.27
2022-09-01T07:16:31.995Z,26.77
2022-09-01T07:18:25.319Z,27.07
2022-09-01T07:24:08.798Z,28.23
2022-09-01T07:26:27.230Z,28.05
2022-09-01T07:29:01.919Z,28.06
2022-09-01T07:34:46.539Z,27.81
2022-09-01T07:42:55.813Z,26.17
2022-09-01T07:42:56.126Z,26.08
2022-09-01T07:45:31.553Z,28.20
2022-09-01T07:48:06.749Z,28.24
2022-09-01T07:50:41.381Z,28.41
2022-09-01T07:53:28.291Z,29.00
2022-09-01T07:55:56.513Z,28.99
2022-09-01T07:58:26.791Z,28.96
2022-09-01T08:00:54.671Z,28.64
2022-09-01T08:03:25.313Z,28.38
2022-09-01T08:05:57.851Z,28.47
2022-09-01T08:08:29.365Z,28.38
2022-09-01T08:11:04.265Z,28.42
2022-09-01T08:13:34.749Z,28.83
2022-09-01T08:16:08.503Z,29.28
2022-09-01T08:18:51.073Z,29.19
2022-09-01T08:21:22.331Z,29.46
2022-09-01T08:23:51.263Z,29.49
2022-09-01T08:26:21.063Z,29.47
2022-09-01T08:28:55.026Z,29.34
2022-09-01T08:31:24.722Z,28.97
2022-09-01T08:33:52.244Z,29.17
2022-09-01T08:36:23.646Z,29.55
2022-09-01T08:38:52.613Z,29.74
2022-09-01T08:41:47.508Z,29.75
2022-09-01T08:44:42.701Z,29.70
2022-09-01T08:47:13.694Z,29.42
2022-09-01T08:49:47.195Z,28.93
2022-09-01T08:52:34.191Z,28.54
2022-09-01T08:55:06.823Z,28.28
2022-09-01T08:57:42.661Z,28.23
2022-09-01T09:00:14.230Z,28.02
2022-09-01T09:02:53.990Z,27.77
2022-09-01T09:05:36.033Z,27.65
2022-09-01T09:08:21.850Z,27.05
2022-09-01T09:11:12.217Z,26.67
2022-09-01T09:14:02.890Z,26.05
2022-09-01T09:16:37.290Z,25.76
2022-09-01T09:19:20.545Z,25.60
2022-09-01T09:21:49.985Z,25.43
2022-09-01T09:24:21.485Z,25.33
2022-09-01T09:26:53.999Z,25.19
2022-09-01T09:29:22.188Z,24.71
2022-09-01T09:32:03.688Z,24.58
2022-09-01T09:34:33.598Z,24.67
2022-09-01T09:37:27.738Z,24.34
2022-09-01T09:40:18.210Z,24.47
2022-09-01T09:42:57.219Z,24.32
2022-09-01T09:45:28.042Z,23.90
2022-09-01T09:47:57.229Z,23.82
2022-09-01T09:50:38.859Z,23.92
2022-09-01T09:53:30.203Z,23.88
2022-09-01T09:56:09.486Z,23.69
2022-09-01T09:58:41.732Z,23.67
2022-09-01T10:01:24.647Z,23.72
2022-09-01T10:04:03.902Z,23.60
2022-09-01T10:06:39.082Z,23.52
2022-09-01T10:09:10.500Z,23.69
2022-09-01T10:11:45.534Z,23.55
2022-09-01T10:14:35.575Z,23.61
2022-09-01T10:17:13.701Z,23.55
2022-09-01T10:19:58.524Z,23.57
2022-09-01T10:22:26.128Z,23.78
2022-09-01T10:24:53.205Z,23.75
2022-09-01T10:27:27.690Z,23.68
2022-09-01T10:30:18.378Z,23.58
2022-09-01T10:32:55.262Z,23.61
2022-09-01T10:35:30.256Z,23.68
2022-09-01T10:38:08.262Z,23.66
2022-09-01T10:40:49.216Z,23.74
2022-09-01T10:43:29.366Z,23.83
2022-09-01T10:46:03.705Z,23.44
2022-09-01T10:48:48.186Z,23.68
2022-09-01T10:51:19.372Z,23.80
2022-09-01T10:53:56.010Z,23.91
2022-09-01T10:56:52.468Z,24.03
2022-09-01T10:59:43.507Z,24.22
2022-09-01T11:02:34.643Z,24.16
2022-09-01T11:04:59.687Z,24.27
2022-09-01T11:07:57.682Z,24.37
2022-09-01T11:10:35.869Z,24.54
2022-09-01T11:13:34.253Z,24.72
2022-09-01T11:19:56.437Z,24.80
2022-09-01T11:22:26.744Z,24.82
2022-09-01T11:25:14.942Z,24.81
2022-09-01T11:27:50.709Z,25.08
2022-09-01T11:30:55.665Z,25.39
2022-09-01T11:33:28.236Z,25.46
2022-09-01T11:36:05.199Z,25.61
2022-09-01T11:38:55.358Z,25.77
2022-09-01T11:42:00.769Z,25.78
2022-09-01T11:44:45.597Z,25.88
2022-09-01T11:47:26.934Z,25.87
2022-09-01T11:50:06.821Z,25.78
2022-09-01T11:52:38.664Z,25.78
2022-09-01T11:55:07.989Z,25.71
2022-09-01T11:57:37.932Z,25.38
2022-09-01T12:00:09.907Z,25.64
2022-09-01T12:02:44.863Z,25.46
2022-09-01T12:05:45.005Z,25.23
2022-09-01T12:08:15.387Z,25.45
2022-09-01T12:10:43.575Z,25.53
2022-09-01T12:13:23.463Z,25.82
2022-09-01T12:18:51.680Z,25.95
2022-09-01T12:21:40.737Z,25.99
2022-09-01T12:24:12.905Z,26.05
2022-09-01T12:26:40.997Z,26.13
2022-09-01T12:29:08.474Z,26.02
2022-09-01T12:31:35.857Z,25.88
2022-09-01T12:34:04.979Z,25.62
2022-09-01T12:36:36.131Z,25.78
2022-09-01T12:39:18.315Z,25.73
2022-09-01T12:41:48.563Z,25.68
2022-09-01T12:44:31.883Z,25.72
2022-09-01T12:47:13.794Z,25.77
2022-09-01T12:49:50.742Z,25.72
2022-09-01T12:52:22.193Z,25.67
2022-09-01T12:54:53.550Z,25.33
2022-09-01T12:57:53.712Z,25.11
2022-09-01T13:00:57.990Z,24.96
2022-09-01T13:03:27.760Z,24.81
2022-09-01T13:05:56.554Z,24.98
2022-09-01T13:08:28.576Z,25.08
2022-09-01T13:11:20.061Z,24.92
2022-09-01T13:13:47.650Z,25.10
2022-09-01T13:16:14.844Z,24.94
2022-09-01T13:21:32.379Z,24.75
2022-09-01T13:24:05.304Z,24.40
2022-09-01T13:26:32.930Z,24.34
2022-09-01T13:28:59.991Z,24.34
2022-09-01T13:31:30.194Z,24.40
2022-09-01T13:34:22.310Z,24.52
2022-09-01T13:36:51.260Z,24.13
2022-09-01T13:39:21.055Z,24.14
2022-09-01T13:41:48.820Z,24.12
2022-09-01T13:44:17.305Z,24.07
2022-09-01T13:47:28.200Z,23.80
2022-09-01T13:52:22.906Z,23.80
2022-09-01T13:54:49.934Z,23.31
2022-09-01T13:57:18.075Z,23.06
2022-09-01T13:59:44.994Z,23.04
2022-09-01T14:02:11.955Z,23.01
2022-09-01T14:04:39.174Z,22.93
2022-09-01T14:07:06.542Z,22.82
2022-09-01T14:09:33.855Z,22.65
2022-09-01T14:12:01.032Z,22.63
2022-09-01T14:15:11.278Z,22.48
2022-09-01T14:17:14.999Z,22.36
2022-09-01T14:19:42.494Z,22.28
2022-09-01T14:22:09.373Z,22.20
2022-09-01T14:24:41.915Z,21.78
2022-09-01T14:27:11.685Z,21.87
2022-09-01T14:32:08.095Z,22.04
2022-09-01T14:34:36.543Z,21.84
2022-09-01T14:37:39.804Z,21.61
2022-09-01T14:40:09.018Z,21.55
2022-09-01T14:42:49.793Z,21.44
2022-09-01T14:45:28.978Z,21.52
2022-09-01T14:47:58.801Z,21.26
2022-09-01T14:50:26.494Z,21.40
2022-09-01T14:52:56.488Z,21.53
2022-09-01T14:55:25.643Z,21.40
2022-09-01T14:57:54.664Z,21.38
2022-09-01T15:00:25.205Z,21.37
2022-09-01T15:02:53.416Z,21.42
2022-09-01T15:05:20.763Z,21.49
2022-09-01T15:07:48.121Z,21.45
2022-09-01T15:10:24.468Z,21.33
2022-09-01T15:12:53.580Z,21.26
2022-09-01T15:15:20.599Z,21.23
2022-09-01T15:17:47.524Z,21.23
2022-09-01T15:20:33.344Z,21.13
2022-09-01T15:23:01.383Z,21.20
2022-09-01T15:25:28.291Z,21.03
2022-09-01T15:27:55.319Z,20.95
2022-09-01T15:30:22.366Z,20.93
2022-09-01T15:32:54.222Z,20.92
2022-09-01T15:35:22.502Z,20.82
2022-09-01T15:37:51.722Z,20.81
2022-09-01T15:40:20.008Z,20.84
2022-09-01T15:42:47.304Z,20.84
2022-09-01T15:45:20.259Z,20.89
2022-09-01T15:47:50.276Z,20.81
2022-09-01T15:50:21.775Z,20.69
2022-09-01T15:52:57.675Z,20.63
2022-09-01T15:55:38.619Z,20.53
2022-09-01T15:58:05.490Z,20.56
2022-09-01T16:00:33.276Z,20.53
2022-09-01T16:03:02.889Z,20.58
2022-09-01T16:05:31.747Z,20.59
2022-09-01T16:07:59.583Z,20.43
2022-09-01T16:10:26.509Z,20.50
2022-09-01T16:12:53.570Z,20.38
2022-09-01T16:15:23.249Z,20.45
2022-09-01T16:18:13.097Z,20.38
2022-09-01T16:20:57.483Z,20.50
2022-09-01T16:23:31.198Z,20.35
2022-09-01T16:26:00.914Z,20.45
2022-09-01T16:28:31.625Z,20.43
2022-09-01T16:31:14.171Z,20.52
2022-09-01T16:33:50.271Z,20.40
2022-09-01T16:36:26.252Z,20.47
2022-09-01T16:39:22.292Z,20.53
2022-09-01T16:42:08.391Z,20.56
2022-09-01T16:45:07.068Z,20.58
2022-09-01T16:47:42.128Z,20.64
2022-09-01T16:50:28.101Z,20.59
2022-09-01T16:53:21.627Z,20.51
2022-09-01T16:56:03.635Z,20.51
2022-09-01T16:58:47.477Z,20.39
2022-09-01T17:01:23.737Z,20.56
2022-09-01T17:03:55.583Z,20.63
2022-09-01T17:06:39.446Z,20.56
2022-09-01T17:09:15.544Z,20.66
2022-09-01T17:11:52.265Z,20.70
2022-09-01T17:14:48.023Z,20.89
2022-09-01T17:17:21.395Z,20.70
2022-09-01T17:19:52.981Z,20.77
2022-09-01T17:22:22.082Z,20.62
2022-09-01T17:27:36.995Z,20.76
2022-09-01T17:30:10.644Z,20.56
2022-09-01T17:33:17.374Z,20.57
2022-09-01T17:35:53.344Z,20.52
2022-09-01T17:38:33.133Z,20.38
2022-09-01T17:41:19.454Z,20.29
2022-09-01T17:44:21.335Z,19.99
2022-09-01T17:46:55.930Z,20.08
2022-09-01T17:49:36.674Z,19.93
2022-09-01T17:52:21.886Z,19.92
2022-09-01T17:55:07.664Z,19.82
2022-09-01T17:57:47.213Z,19.90
2022-09-01T18:00:27.314Z,19.86
2022-09-01T18:03:13.183Z,19.86
2022-09-01T18:05:43.879Z,19.73
2022-09-01T18:08:39.093Z,19.81
2022-09-01T18:11:23.544Z,19.83
2022-09-01T18:14:08.271Z,19.79
2022-09-01T18:16:47.214Z,19.85
2022-09-01T18:19:19.903Z,19.88
2022-09-01T18:21:58.086Z,19.83
2022-09-01T18:24:51.544Z,19.83
2022-09-01T18:27:19.054Z,19.78
2022-09-01T18:29:53.066Z,19.75
2022-09-01T18:32:41.163Z,19.83
2022-09-01T18:35:15.975Z,19.79
2022-09-01T18:38:04.531Z,19.82
2022-09-01T18:40:57.992Z,19.78
2022-09-01T18:43:34.230Z,19.88
2022-09-01T18:46:33.040Z,19.80
2022-09-01T18:49:30.811Z,19.75
2022-09-01T18:52:25.856Z,19.71
2022-09-01T18:55:10.596Z,19.79
2022-09-01T18:57:40.453Z,19.74
2022-09-01T19:00:19.093Z,19.76
2022-09-01T19:03:02.982Z,19.64
2022-09-01T19:05:43.413Z,19.60
2022-09-01T19:08:22.462Z,19.54
2022-09-01T19:11:12.443Z,19.53
2022-09-01T19:14:37.554Z,19.52
2022-09-01T19:17:16.804Z,19.53
2022-09-01T19:20:02.123Z,19.48
2022-09-01T19:22:50.438Z,19.49
2022-09-01T19:25:39.048Z,19.52
2022-09-01T19:28:14.887Z,19.40
2022-09-01T19:30:48.379Z,19.33
2022-09-01T19:33:20.274Z,19.19
2022-09-01T19:35:54.734Z,19.24
2022-09-01T19:38:27.953Z,19.25
2022-09-01T19:41:04.024Z,19.25
2022-09-01T19:43:36.548Z,19.13
2022-09-01T19:46:47.291Z,19.12
2022-09-01T19:49:27.460Z,19.12
2022-09-01T19:52:28.651Z,19.12
2022-09-01T19:55:06.955Z,19.14
2022-09-01T19:57:48.540Z,19.13
2022-09-01T20:00:25.402Z,19.11
2022-09-01T20:03:12.801Z,19.13
2022-09-01T20:05:50.550Z,19.12
2022-09-01T20:08:35.070Z,19.05
2022-09-01T20:11:14.878Z,19.11
2022-09-01T20:14:15.476Z,19.00
2022-09-01T20:16:57.820Z,19.03
2022-09-01T20:19:47.368Z,19.01
2022-09-01T20:22:35.608Z,18.92
2022-09-01T20:25:13.105Z,18.64
2022-09-01T20:27:47.974Z,18.62
2022-09-01T20:30:46.766Z,18.62
2022-09-01T20:33:15.343Z,18.57
2022-09-01T20:36:00.730Z,18.65
2022-09-01T20:38:58.035Z,18.61
2022-09-01T20:41:49.414Z,18.67
2022-09-01T20:44:48.311Z,18.64
2022-09-01T20:47:15.348Z,18.50
2022-09-01T20:49:42.719Z,18.50
2022-09-01T20:52:31.592Z,18.50
2022-09-01T21:04:32.562Z,18.44
2022-09-01T21:07:31.163Z,18.36
2022-09-01T21:10:38.363Z,18.44
2022-09-01T21:13:40.123Z,18.41
2022-09-01T21:16:23.083Z,18.33
2022-09-01T21:19:51.933Z,18.25
2022-09-01T21:22:22.301Z,18.24
2022-09-01T21:24:50.541Z,18.26
2022-09-01T21:27:23.978Z,18.39
2022-09-01T21:30:13.032Z,18.29
2022-09-01T21:32:40.941Z,18.27
2022-09-01T21:35:15.904Z,17.98
2022-09-01T21:38:06.513Z,17.96
2022-09-01T21:43:58.072Z,17.84
2022-09-01T21:46:26.289Z,17.87
2022-09-01T21:48:53.307Z,17.96
2022-09-01T21:51:20.761Z,18.11
2022-09-01T21:53:51.804Z,18.01
2022-09-01T21:56:18.790Z,18.19
2022-09-01T21:58:52.732Z,18.24
2022-09-01T22:01:19.689Z,18.30
2022-09-01T22:03:47.084Z,18.39
2022-09-01T22:06:14.016Z,18.36
2022-09-01T22:08:41.796Z,18.26
2022-09-01T22:11:10.415Z,18.34
2022-09-01T22:13:37.520Z,18.36
2022-09-01T22:16:05.352Z,18.33
2022-09-01T22:18:32.521Z,18.33
2022-09-01T22:21:06.329Z,18.32
2022-09-01T22:23:33.570Z,18.38
2022-09-01T22:26:00.577Z,18.30
2022-09-01T22:28:27.639Z,18.30
2022-09-01T22:30:54.790Z,18.16
2022-09-01T22:33:23.358Z,18.26
2022-09-01T22:35:53.930Z,18.23
2022-09-01T22:38:22.090Z,18.23
2022-09-01T22:40:52.988Z,18.23
2022-09-01T22:43:20.371Z,18.20
2022-09-01T22:45:49.697Z,18.06
2022-09-01T22:48:18.964Z,18.11
2022-09-01T22:50:47.763Z,18.01
2022-09-01T22:53:16.877Z,18.03
2022-09-01T22:55:46.954Z,18.06
2022-09-01T22:58:15.574Z,18.06
2022-09-01T23:00:49.916Z,18.24
2022-09-01T23:03:20.038Z,18.15
2022-09-01T23:05:48.189Z,18.07
2022-09-01T23:08:16.322Z,18.11
2022-09-01T23:10:56.442Z,17.97
2022-09-01T23:13:25.785Z,18.04
2022-09-01T23:15:53.603Z,17.97
2022-09-01T23:18:20.706Z,18.09
2022-09-01T23:20:47.830Z,17.96
2022-09-01T23:23:15.544Z,18.07
2022-09-01T23:25:43.998Z,18.10
2022-09-01T23:28:14.686Z,17.96
2022-09-01T23:30:42.925Z,18.10
2022-09-01T23:33:10.213Z,18.11
2022-09-01T23:35:43.721Z,18.08
2022-09-01T23:38:11.643Z,17.99
2022-09-01T23:40:44.037Z,18.03
2022-09-01T23:43:16.307Z,17.99
2022-09-01T23:45:47.151Z,18.02
2022-09-01T23:48:15.898Z,18.02
2022-09-01T23:50:55.116Z,17.96
2022-09-01T23:53:26.220Z,17.97
2022-09-01T23:55:55.777Z,18.06
2022-09-01T23:58:24.871Z,18.16
